Yeager Airport Charleston US
ICAO: KCRW
IATA: CRW
Category: Large
Scheduled Services: Yes

Elevation: 981 ft
TransAlt. 18000 ft.

Airport Communications:
CHARLESTON APP/DEP:128.5
ATIS:127.6
CLNC DEL:118.55
GND:121.8
ANG COMD POST/OPS:30.23
ELKINS RDO:122.2
CHARLESTON TWR:125.7
UNICOM:122.95

KCRW Zoom In..

If you have problems with the map follow the link
https://www.worldairports.se/pages/airport.php?
ICAO=KCRW

Runways:

(A) RW 05 length 6802 ft width 150 ft
ILS 110.30 / hdg 53

(B) RW 23 length 6802 ft width 150 ft
ILS 110.30 / hdg 233

Location; KCRW
Day. 21 / Time. 09.01 Zulu
* Altimeter: 30.21
* Temperature: 04° c. 39.2°f.
* Wind from: 300° Speed 08 kn.
Dewpoint: -01° c.
Visibility: 10 Statute Miles.
Clouds: Broken 3300 ft.
Clouds: Overcast 4100 ft.

KCRW 210901Z 30008KT 10SM BKN033 OVC041 04/M01 A3021 RMK AO2 T00391011 $


Wind From 300°
Speed 08 kn.

 
 
jpsmedia.com for Web Design worldairports.se 2018   terms of use